sensor_id;sensor_type;location;lat;lon;timestamp;P1;durP1;ratioP1;P2;durP2;ratioP2
76176;SDS011;64938;47.696;8.066;2023-01-23T00:01:40;7.80;;;5.80;;
76176;SDS011;64938;47.696;8.066;2023-01-23T00:04:06;7.87;;;5.83;;
76176;SDS011;64938;47.696;8.066;2023-01-23T00:06:32;6.93;;;5.40;;
76176;SDS011;64938;47.696;8.066;2023-01-23T00:08:57;8.20;;;5.90;;
76176;SDS011;64938;47.696;8.066;2023-01-23T00:11:24;8.23;;;5.60;;
76176;SDS011;64938;47.696;8.066;2023-01-23T00:13:51;7.00;;;4.97;;
76176;SDS011;64938;47.696;8.066;2023-01-23T00:16:21;8.17;;;5.97;;
76176;SDS011;64938;47.696;8.066;2023-01-23T00:18:48;7.87;;;5.83;;
76176;SDS011;64938;47.696;8.066;2023-01-23T00:21:14;9.67;;;7.07;;
76176;SDS011;64938;47.696;8.066;2023-01-23T00:23:42;8.90;;;6.40;;
76176;SDS011;64938;47.696;8.066;2023-01-23T00:26:10;7.23;;;5.63;;
76176;SDS011;64938;47.696;8.066;2023-01-23T00:28:37;8.30;;;5.63;;
76176;SDS011;64938;47.696;8.066;2023-01-23T00:31:07;7.43;;;5.40;;
76176;SDS011;64938;47.696;8.066;2023-01-23T00:33:33;8.03;;;6.50;;
76176;SDS011;64938;47.696;8.066;2023-01-23T00:36:00;9.30;;;6.50;;
76176;SDS011;64938;47.696;8.066;2023-01-23T00:38:26;8.73;;;6.47;;
76176;SDS011;64938;47.696;8.066;2023-01-23T00:40:52;7.67;;;5.67;;
76176;SDS011;64938;47.696;8.066;2023-01-23T00:43:19;9.43;;;6.30;;
76176;SDS011;64938;47.696;8.066;2023-01-23T00:45:45;9.03;;;5.77;;
76176;SDS011;64938;47.696;8.066;2023-01-23T00:48:11;6.73;;;5.13;;
76176;SDS011;64938;47.696;8.066;2023-01-23T00:50:37;8.27;;;5.83;;
76176;SDS011;64938;47.696;8.066;2023-01-23T00:53:02;8.83;;;6.03;;
76176;SDS011;64938;47.696;8.066;2023-01-23T00:55:28;8.90;;;6.10;;
76176;SDS011;64938;47.696;8.066;2023-01-23T00:57:53;9.93;;;6.17;;
76176;SDS011;64938;47.696;8.066;2023-01-23T01:00:19;7.50;;;5.40;;
76176;SDS011;64938;47.696;8.066;2023-01-23T01:02:44;7.03;;;5.73;;
76176;SDS011;64938;47.696;8.066;2023-01-23T01:05:10;7.33;;;4.90;;
76176;SDS011;64938;47.696;8.066;2023-01-23T01:07:36;8.40;;;6.47;;
76176;SDS011;64938;47.696;8.066;2023-01-23T01:10:01;6.40;;;5.07;;
76176;SDS011;64938;47.696;8.066;2023-01-23T01:12:27;7.00;;;5.03;;
76176;SDS011;64938;47.696;8.066;2023-01-23T01:14:53;8.23;;;6.17;;
76176;SDS011;64938;47.696;8.066;2023-01-23T01:17:18;6.40;;;5.70;;
76176;SDS011;64938;47.696;8.066;2023-01-23T01:19:44;6.30;;;4.57;;
76176;SDS011;64938;47.696;8.066;2023-01-23T01:22:09;7.50;;;5.80;;
76176;SDS011;64938;47.696;8.066;2023-01-23T01:24:35;5.70;;;4.80;;
76176;SDS011;64938;47.696;8.066;2023-01-23T01:27:00;6.00;;;5.17;;
76176;SDS011;64938;47.696;8.066;2023-01-23T01:29:26;7.50;;;5.70;;
76176;SDS011;64938;47.696;8.066;2023-01-23T01:31:51;6.40;;;4.83;;
76176;SDS011;64938;47.696;8.066;2023-01-23T01:34:17;5.77;;;5.17;;
76176;SDS011;64938;47.696;8.066;2023-01-23T01:36:42;5.97;;;4.30;;
76176;SDS011;64938;47.696;8.066;2023-01-23T01:39:08;5.80;;;4.40;;
76176;SDS011;64938;47.696;8.066;2023-01-23T01:41:34;7.70;;;5.83;;
76176;SDS011;64938;47.696;8.066;2023-01-23T01:43:59;7.30;;;5.00;;
76176;SDS011;64938;47.696;8.066;2023-01-23T01:46:26;6.83;;;5.07;;
76176;SDS011;64938;47.696;8.066;2023-01-23T01:51:49;6.40;;;5.00;;
76176;SDS011;64938;47.696;8.066;2023-01-23T01:54:34;6.80;;;5.07;;
76176;SDS011;64938;47.696;8.066;2023-01-23T01:57:10;7.70;;;5.60;;
76176;SDS011;64938;47.696;8.066;2023-01-23T01:59:39;8.30;;;5.67;;
76176;SDS011;64938;47.696;8.066;2023-01-23T02:02:17;6.60;;;4.90;;
76176;SDS011;64938;47.696;8.066;2023-01-23T02:04:46;5.70;;;4.73;;
76176;SDS011;64938;47.696;8.066;2023-01-23T02:07:16;5.97;;;4.80;;
76176;SDS011;64938;47.696;8.066;2023-01-23T02:09:47;7.60;;;6.50;;
76176;SDS011;64938;47.696;8.066;2023-01-23T02:12:14;6.80;;;4.97;;
76176;SDS011;64938;47.696;8.066;2023-01-23T02:14:39;5.47;;;4.97;;
76176;SDS011;64938;47.696;8.066;2023-01-23T02:17:05;6.70;;;4.90;;
76176;SDS011;64938;47.696;8.066;2023-01-23T02:25:17;4.40;;;3.67;;
76176;SDS011;64938;47.696;8.066;2023-01-23T02:27:45;5.53;;;4.27;;
76176;SDS011;64938;47.696;8.066;2023-01-23T02:30:10;5.20;;;4.60;;
76176;SDS011;64938;47.696;8.066;2023-01-23T02:32:37;4.73;;;4.10;;
76176;SDS011;64938;47.696;8.066;2023-01-23T02:35:08;4.43;;;3.93;;
76176;SDS011;64938;47.696;8.066;2023-01-23T02:37:36;4.60;;;3.83;;
76176;SDS011;64938;47.696;8.066;2023-01-23T02:40:02;4.70;;;4.03;;
76176;SDS011;64938;47.696;8.066;2023-01-23T02:42:28;5.17;;;4.07;;
76176;SDS011;64938;47.696;8.066;2023-01-23T02:44:54;5.30;;;3.93;;
76176;SDS011;64938;47.696;8.066;2023-01-23T02:47:20;5.23;;;3.60;;
76176;SDS011;64938;47.696;8.066;2023-01-23T02:49:47;4.23;;;3.30;;
76176;SDS011;64938;47.696;8.066;2023-01-23T02:52:12;5.00;;;3.87;;
76176;SDS011;64938;47.696;8.066;2023-01-23T02:54:38;5.07;;;4.57;;
76176;SDS011;64938;47.696;8.066;2023-01-23T02:57:04;5.30;;;4.47;;
76176;SDS011;64938;47.696;8.066;2023-01-23T02:59:30;6.10;;;4.50;;
76176;SDS011;64938;47.696;8.066;2023-01-23T03:02:14;5.00;;;4.13;;
76176;SDS011;64938;47.696;8.066;2023-01-23T03:04:40;5.50;;;4.30;;
76176;SDS011;64938;47.696;8.066;2023-01-23T03:07:06;4.53;;;3.97;;
76176;SDS011;64938;47.696;8.066;2023-01-23T03:09:31;4.67;;;3.20;;
76176;SDS011;64938;47.696;8.066;2023-01-23T03:11:57;3.90;;;3.23;;
76176;SDS011;64938;47.696;8.066;2023-01-23T03:14:23;2.93;;;2.63;;
76176;SDS011;64938;47.696;8.066;2023-01-23T03:16:49;3.70;;;3.40;;
76176;SDS011;64938;47.696;8.066;2023-01-23T03:19:18;3.10;;;2.63;;
76176;SDS011;64938;47.696;8.066;2023-01-23T03:21:47;4.00;;;3.60;;
76176;SDS011;64938;47.696;8.066;2023-01-23T03:24:13;3.70;;;3.37;;
76176;SDS011;64938;47.696;8.066;2023-01-23T03:26:39;4.50;;;3.50;;
76176;SDS011;64938;47.696;8.066;2023-01-23T03:29:06;5.87;;;4.10;;
76176;SDS011;64938;47.696;8.066;2023-01-23T03:31:50;4.60;;;3.17;;
76176;SDS011;64938;47.696;8.066;2023-01-23T03:34:16;5.07;;;3.60;;
76176;SDS011;64938;47.696;8.066;2023-01-23T03:36:46;4.23;;;3.83;;
76176;SDS011;64938;47.696;8.066;2023-01-23T03:39:12;4.40;;;3.77;;
76176;SDS011;64938;47.696;8.066;2023-01-23T03:41:56;4.50;;;3.87;;
76176;SDS011;64938;47.696;8.066;2023-01-23T03:44:22;4.37;;;3.43;;
76176;SDS011;64938;47.696;8.066;2023-01-23T03:46:48;6.40;;;4.53;;
76176;SDS011;64938;47.696;8.066;2023-01-23T03:49:14;4.47;;;3.83;;
76176;SDS011;64938;47.696;8.066;2023-01-23T03:51:40;5.23;;;4.10;;
76176;SDS011;64938;47.696;8.066;2023-01-23T03:54:07;5.20;;;4.00;;
76176;SDS011;64938;47.696;8.066;2023-01-23T03:56:33;5.20;;;3.93;;
76176;SDS011;64938;47.696;8.066;2023-01-23T03:58:58;6.20;;;4.77;;
76176;SDS011;64938;47.696;8.066;2023-01-23T04:01:27;6.37;;;4.50;;
76176;SDS011;64938;47.696;8.066;2023-01-23T04:03:52;5.83;;;4.40;;
76176;SDS011;64938;47.696;8.066;2023-01-23T04:06:18;6.87;;;5.30;;
76176;SDS011;64938;47.696;8.066;2023-01-23T04:08:44;7.40;;;5.40;;
76176;SDS011;64938;47.696;8.066;2023-01-23T04:11:10;8.90;;;5.27;;
76176;SDS011;64938;47.696;8.066;2023-01-23T04:13:36;7.60;;;6.23;;
76176;SDS011;64938;47.696;8.066;2023-01-23T04:16:02;8.13;;;6.17;;
76176;SDS011;64938;47.696;8.066;2023-01-23T04:18:28;9.97;;;6.10;;
76176;SDS011;64938;47.696;8.066;2023-01-23T04:20:54;7.67;;;6.00;;
76176;SDS011;64938;47.696;8.066;2023-01-23T04:23:20;8.47;;;5.80;;
76176;SDS011;64938;47.696;8.066;2023-01-23T04:25:46;8.33;;;6.50;;
76176;SDS011;64938;47.696;8.066;2023-01-23T04:28:11;8.53;;;6.30;;
76176;SDS011;64938;47.696;8.066;2023-01-23T04:30:37;9.37;;;7.03;;
76176;SDS011;64938;47.696;8.066;2023-01-23T04:33:03;10.23;;;7.00;;
76176;SDS011;64938;47.696;8.066;2023-01-23T04:35:28;8.40;;;6.20;;
76176;SDS011;64938;47.696;8.066;2023-01-23T04:37:56;7.40;;;5.60;;
76176;SDS011;64938;47.696;8.066;2023-01-23T04:40:22;9.07;;;6.27;;
76176;SDS011;64938;47.696;8.066;2023-01-23T04:42:47;8.40;;;6.30;;
76176;SDS011;64938;47.696;8.066;2023-01-23T04:45:13;8.03;;;5.77;;
76176;SDS011;64938;47.696;8.066;2023-01-23T04:47:39;11.10;;;7.30;;
76176;SDS011;64938;47.696;8.066;2023-01-23T04:50:04;10.17;;;7.57;;
76176;SDS011;64938;47.696;8.066;2023-01-23T04:52:30;8.93;;;7.03;;
76176;SDS011;64938;47.696;8.066;2023-01-23T04:54:56;8.33;;;6.43;;
76176;SDS011;64938;47.696;8.066;2023-01-23T04:57:22;8.63;;;6.27;;
76176;SDS011;64938;47.696;8.066;2023-01-23T04:59:47;8.93;;;6.27;;
76176;SDS011;64938;47.696;8.066;2023-01-23T05:02:13;8.40;;;6.20;;
76176;SDS011;64938;47.696;8.066;2023-01-23T05:04:38;9.17;;;6.47;;
76176;SDS011;64938;47.696;8.066;2023-01-23T05:07:04;9.70;;;6.20;;
76176;SDS011;64938;47.696;8.066;2023-01-23T05:09:29;8.63;;;6.40;;
76176;SDS011;64938;47.696;8.066;2023-01-23T05:11:55;7.83;;;5.20;;
76176;SDS011;64938;47.696;8.066;2023-01-23T05:14:20;8.20;;;6.23;;
76176;SDS011;64938;47.696;8.066;2023-01-23T05:16:48;7.13;;;5.90;;
76176;SDS011;64938;47.696;8.066;2023-01-23T05:19:13;7.70;;;5.90;;
76176;SDS011;64938;47.696;8.066;2023-01-23T05:21:39;6.57;;;5.10;;
76176;SDS011;64938;47.696;8.066;2023-01-23T05:24:05;9.00;;;5.93;;
76176;SDS011;64938;47.696;8.066;2023-01-23T05:26:31;6.40;;;5.43;;
76176;SDS011;64938;47.696;8.066;2023-01-23T05:28:56;6.40;;;4.90;;
76176;SDS011;64938;47.696;8.066;2023-01-23T05:31:22;6.07;;;4.47;;
76176;SDS011;64938;47.696;8.066;2023-01-23T05:33:47;6.00;;;4.77;;
76176;SDS011;64938;47.696;8.066;2023-01-23T05:36:13;5.20;;;4.30;;
76176;SDS011;64938;47.696;8.066;2023-01-23T05:38:38;5.27;;;4.40;;
76176;SDS011;64938;47.696;8.066;2023-01-23T05:41:04;5.73;;;4.70;;
76176;SDS011;64938;47.696;8.066;2023-01-23T05:43:29;6.17;;;5.17;;
76176;SDS011;64938;47.696;8.066;2023-01-23T05:45:57;5.83;;;4.40;;
76176;SDS011;64938;47.696;8.066;2023-01-23T05:48:25;4.33;;;3.90;;
76176;SDS011;64938;47.696;8.066;2023-01-23T05:50:50;5.13;;;3.97;;
76176;SDS011;64938;47.696;8.066;2023-01-23T05:53:16;4.20;;;3.23;;
76176;SDS011;64938;47.696;8.066;2023-01-23T05:55:45;4.13;;;3.10;;
76176;SDS011;64938;47.696;8.066;2023-01-23T05:58:10;4.40;;;3.60;;
76176;SDS011;64938;47.696;8.066;2023-01-23T06:00:36;5.37;;;3.43;;
76176;SDS011;64938;47.696;8.066;2023-01-23T06:03:02;4.40;;;2.70;;
76176;SDS011;64938;47.696;8.066;2023-01-23T06:05:28;3.70;;;3.07;;
76176;SDS011;64938;47.696;8.066;2023-01-23T06:07:54;4.17;;;3.23;;
76176;SDS011;64938;47.696;8.066;2023-01-23T06:10:19;4.80;;;3.00;;
76176;SDS011;64938;47.696;8.066;2023-01-23T06:12:45;4.03;;;3.27;;
76176;SDS011;64938;47.696;8.066;2023-01-23T06:15:10;3.67;;;3.03;;
76176;SDS011;64938;47.696;8.066;2023-01-23T06:17:36;4.90;;;3.27;;
76176;SDS011;64938;47.696;8.066;2023-01-23T06:20:02;3.90;;;3.40;;
76176;SDS011;64938;47.696;8.066;2023-01-23T06:22:28;4.47;;;3.73;;
76176;SDS011;64938;47.696;8.066;2023-01-23T06:24:54;3.70;;;3.40;;
76176;SDS011;64938;47.696;8.066;2023-01-23T06:27:19;4.73;;;4.07;;
76176;SDS011;64938;47.696;8.066;2023-01-23T06:29:45;3.80;;;3.23;;
76176;SDS011;64938;47.696;8.066;2023-01-23T06:32:11;3.33;;;2.70;;
76176;SDS011;64938;47.696;8.066;2023-01-23T06:34:36;5.77;;;4.10;;
76176;SDS011;64938;47.696;8.066;2023-01-23T06:37:02;5.00;;;4.00;;
76176;SDS011;64938;47.696;8.066;2023-01-23T06:39:28;4.90;;;3.80;;
76176;SDS011;64938;47.696;8.066;2023-01-23T06:41:54;3.73;;;3.00;;
76176;SDS011;64938;47.696;8.066;2023-01-23T06:44:20;4.83;;;3.43;;
76176;SDS011;64938;47.696;8.066;2023-01-23T06:46:46;6.10;;;4.30;;
76176;SDS011;64938;47.696;8.066;2023-01-23T06:49:12;3.93;;;3.47;;
76176;SDS011;64938;47.696;8.066;2023-01-23T06:51:37;4.13;;;3.37;;
76176;SDS011;64938;47.696;8.066;2023-01-23T06:54:03;4.27;;;3.50;;
76176;SDS011;64938;47.696;8.066;2023-01-23T06:56:29;6.00;;;4.13;;
76176;SDS011;64938;47.696;8.066;2023-01-23T06:58:55;4.83;;;4.10;;
76176;SDS011;64938;47.696;8.066;2023-01-23T07:01:20;5.50;;;4.30;;
76176;SDS011;64938;47.696;8.066;2023-01-23T07:03:46;5.13;;;4.33;;
76176;SDS011;64938;47.696;8.066;2023-01-23T07:06:12;6.50;;;4.40;;
76176;SDS011;64938;47.696;8.066;2023-01-23T07:08:39;6.80;;;5.30;;
76176;SDS011;64938;47.696;8.066;2023-01-23T07:11:06;4.77;;;4.10;;
76176;SDS011;64938;47.696;8.066;2023-01-23T07:13:32;5.70;;;4.27;;
76176;SDS011;64938;47.696;8.066;2023-01-23T07:15:58;3.93;;;3.20;;
76176;SDS011;64938;47.696;8.066;2023-01-23T07:18:23;4.53;;;3.87;;
76176;SDS011;64938;47.696;8.066;2023-01-23T07:20:52;4.40;;;3.93;;
76176;SDS011;64938;47.696;8.066;2023-01-23T07:23:17;5.17;;;4.20;;
76176;SDS011;64938;47.696;8.066;2023-01-23T07:25:43;5.67;;;4.57;;
76176;SDS011;64938;47.696;8.066;2023-01-23T07:28:09;5.50;;;4.17;;
76176;SDS011;64938;47.696;8.066;2023-01-23T07:30:34;5.13;;;3.80;;
76176;SDS011;64938;47.696;8.066;2023-01-23T07:33:00;7.30;;;3.97;;
76176;SDS011;64938;47.696;8.066;2023-01-23T07:35:25;4.90;;;3.77;;
76176;SDS011;64938;47.696;8.066;2023-01-23T07:37:51;4.70;;;4.30;;
76176;SDS011;64938;47.696;8.066;2023-01-23T07:40:17;5.00;;;3.73;;
76176;SDS011;64938;47.696;8.066;2023-01-23T07:42:43;5.90;;;4.23;;
76176;SDS011;64938;47.696;8.066;2023-01-23T07:45:10;4.77;;;3.40;;
76176;SDS011;64938;47.696;8.066;2023-01-23T07:47:36;6.20;;;4.30;;
76176;SDS011;64938;47.696;8.066;2023-01-23T07:50:04;4.17;;;3.27;;
76176;SDS011;64938;47.696;8.066;2023-01-23T07:52:41;4.10;;;3.10;;
76176;SDS011;64938;47.696;8.066;2023-01-23T07:55:07;5.17;;;3.70;;
76176;SDS011;64938;47.696;8.066;2023-01-23T07:57:32;4.10;;;3.60;;
76176;SDS011;64938;47.696;8.066;2023-01-23T07:59:58;5.10;;;3.83;;
76176;SDS011;64938;47.696;8.066;2023-01-23T08:02:24;4.10;;;3.67;;
76176;SDS011;64938;47.696;8.066;2023-01-23T08:04:49;4.77;;;3.77;;
76176;SDS011;64938;47.696;8.066;2023-01-23T08:07:15;4.40;;;3.23;;
76176;SDS011;64938;47.696;8.066;2023-01-23T08:09:40;4.40;;;3.80;;
76176;SDS011;64938;47.696;8.066;2023-01-23T08:12:08;4.37;;;3.50;;
76176;SDS011;64938;47.696;8.066;2023-01-23T08:14:34;4.07;;;3.53;;
76176;SDS011;64938;47.696;8.066;2023-01-23T08:16:59;3.73;;;3.10;;
76176;SDS011;64938;47.696;8.066;2023-01-23T08:19:25;4.70;;;3.50;;
76176;SDS011;64938;47.696;8.066;2023-01-23T08:21:52;4.10;;;3.37;;
76176;SDS011;64938;47.696;8.066;2023-01-23T08:24:17;4.43;;;3.60;;
76176;SDS011;64938;47.696;8.066;2023-01-23T08:26:43;5.70;;;4.50;;
76176;SDS011;64938;47.696;8.066;2023-01-23T08:29:09;3.97;;;3.43;;
76176;SDS011;64938;47.696;8.066;2023-01-23T08:31:36;5.00;;;3.90;;
76176;SDS011;64938;47.696;8.066;2023-01-23T08:34:02;4.30;;;3.57;;
76176;SDS011;64938;47.696;8.066;2023-01-23T08:36:27;4.43;;;3.90;;
76176;SDS011;64938;47.696;8.066;2023-01-23T08:38:53;4.87;;;3.30;;
76176;SDS011;64938;47.696;8.066;2023-01-23T08:41:19;5.80;;;4.10;;
76176;SDS011;64938;47.696;8.066;2023-01-23T08:43:45;4.63;;;3.67;;
76176;SDS011;64938;47.696;8.066;2023-01-23T08:46:11;4.70;;;4.00;;
76176;SDS011;64938;47.696;8.066;2023-01-23T08:48:36;5.13;;;3.80;;
76176;SDS011;64938;47.696;8.066;2023-01-23T08:51:03;6.60;;;4.90;;
76176;SDS011;64938;47.696;8.066;2023-01-23T08:53:31;6.20;;;4.37;;
76176;SDS011;64938;47.696;8.066;2023-01-23T08:56:01;5.40;;;4.07;;
76176;SDS011;64938;47.696;8.066;2023-01-23T08:58:28;4.07;;;3.50;;
76176;SDS011;64938;47.696;8.066;2023-01-23T09:00:54;5.37;;;3.77;;
76176;SDS011;64938;47.696;8.066;2023-01-23T09:03:20;6.90;;;3.93;;
76176;SDS011;64938;47.696;8.066;2023-01-23T09:05:45;4.70;;;4.07;;
76176;SDS011;64938;47.696;8.066;2023-01-23T09:08:11;5.80;;;4.37;;
76176;SDS011;64938;47.696;8.066;2023-01-23T09:10:36;6.50;;;4.93;;
76176;SDS011;64938;47.696;8.066;2023-01-23T09:13:02;7.37;;;4.80;;
76176;SDS011;64938;47.696;8.066;2023-01-23T09:15:28;6.10;;;4.40;;
76176;SDS011;64938;47.696;8.066;2023-01-23T09:17:54;5.73;;;4.23;;
76176;SDS011;64938;47.696;8.066;2023-01-23T09:20:19;6.60;;;5.27;;
76176;SDS011;64938;47.696;8.066;2023-01-23T09:22:45;6.40;;;4.50;;
76176;SDS011;64938;47.696;8.066;2023-01-23T09:25:11;5.93;;;4.60;;
76176;SDS011;64938;47.696;8.066;2023-01-23T09:27:38;5.60;;;4.43;;
76176;SDS011;64938;47.696;8.066;2023-01-23T09:30:04;5.10;;;4.40;;
76176;SDS011;64938;47.696;8.066;2023-01-23T09:32:30;6.63;;;4.37;;
76176;SDS011;64938;47.696;8.066;2023-01-23T09:34:55;6.27;;;4.43;;
76176;SDS011;64938;47.696;8.066;2023-01-23T09:37:21;6.47;;;4.57;;
76176;SDS011;64938;47.696;8.066;2023-01-23T09:39:47;5.80;;;4.87;;
76176;SDS011;64938;47.696;8.066;2023-01-23T09:44:49;6.93;;;5.23;;
76176;SDS011;64938;47.696;8.066;2023-01-23T09:47:40;5.97;;;4.90;;
76176;SDS011;64938;47.696;8.066;2023-01-23T09:50:07;6.27;;;4.70;;
76176;SDS011;64938;47.696;8.066;2023-01-23T09:52:41;6.13;;;4.27;;
76176;SDS011;64938;47.696;8.066;2023-01-23T09:57:42;4.57;;;4.10;;
76176;SDS011;64938;47.696;8.066;2023-01-23T10:00:26;6.40;;;5.30;;
76176;SDS011;64938;47.696;8.066;2023-01-23T10:02:59;5.67;;;4.80;;
76176;SDS011;64938;47.696;8.066;2023-01-23T10:08:32;6.80;;;4.50;;
76176;SDS011;64938;47.696;8.066;2023-01-23T10:11:03;7.03;;;5.50;;
76176;SDS011;64938;47.696;8.066;2023-01-23T10:27:21;7.33;;;5.07;;
76176;SDS011;64938;47.696;8.066;2023-01-23T10:29:50;6.70;;;5.07;;
76176;SDS011;64938;47.696;8.066;2023-01-23T10:34:58;7.17;;;4.93;;
76176;SDS011;64938;47.696;8.066;2023-01-23T10:43:03;5.40;;;4.23;;
76176;SDS011;64938;47.696;8.066;2023-01-23T10:45:34;7.00;;;5.43;;
76176;SDS011;64938;47.696;8.066;2023-01-23T10:48:00;8.70;;;5.70;;
76176;SDS011;64938;47.696;8.066;2023-01-23T10:50:33;5.90;;;4.50;;
76176;SDS011;64938;47.696;8.066;2023-01-23T10:53:07;6.60;;;4.93;;
76176;SDS011;64938;47.696;8.066;2023-01-23T10:55:43;6.03;;;4.40;;
76176;SDS011;64938;47.696;8.066;2023-01-23T10:58:19;5.60;;;4.00;;
76176;SDS011;64938;47.696;8.066;2023-01-23T11:00:58;7.20;;;4.53;;
76176;SDS011;64938;47.696;8.066;2023-01-23T11:03:33;7.40;;;5.50;;
76176;SDS011;64938;47.696;8.066;2023-01-23T11:11:19;7.97;;;5.60;;
76176;SDS011;64938;47.696;8.066;2023-01-23T11:13:47;8.60;;;5.90;;
76176;SDS011;64938;47.696;8.066;2023-01-23T11:16:15;7.63;;;5.10;;
76176;SDS011;64938;47.696;8.066;2023-01-23T11:18:54;8.30;;;5.53;;
76176;SDS011;64938;47.696;8.066;2023-01-23T11:21:28;6.30;;;5.10;;
76176;SDS011;64938;47.696;8.066;2023-01-23T11:24:16;6.57;;;5.03;;
76176;SDS011;64938;47.696;8.066;2023-01-23T11:26:56;9.13;;;6.13;;
76176;SDS011;64938;47.696;8.066;2023-01-23T11:29:30;7.03;;;4.83;;
76176;SDS011;64938;47.696;8.066;2023-01-23T11:32:13;6.43;;;5.23;;
76176;SDS011;64938;47.696;8.066;2023-01-23T11:34:41;8.63;;;5.57;;
76176;SDS011;64938;47.696;8.066;2023-01-23T11:39:56;8.27;;;6.30;;
76176;SDS011;64938;47.696;8.066;2023-01-23T11:42:39;8.93;;;6.33;;
76176;SDS011;64938;47.696;8.066;2023-01-23T11:48:04;7.40;;;5.03;;
76176;SDS011;64938;47.696;8.066;2023-01-23T11:53:20;7.03;;;5.60;;
76176;SDS011;64938;47.696;8.066;2023-01-23T12:01:22;7.23;;;5.77;;
76176;SDS011;64938;47.696;8.066;2023-01-23T12:09:17;8.90;;;5.83;;
76176;SDS011;64938;47.696;8.066;2023-01-23T12:11:48;8.57;;;5.23;;
76176;SDS011;64938;47.696;8.066;2023-01-23T12:19:53;6.33;;;4.80;;
76176;SDS011;64938;47.696;8.066;2023-01-23T12:28:03;8.70;;;6.07;;
76176;SDS011;64938;47.696;8.066;2023-01-23T12:41:54;7.73;;;4.90;;
76176;SDS011;64938;47.696;8.066;2023-01-23T12:44:39;6.90;;;5.67;;
76176;SDS011;64938;47.696;8.066;2023-01-23T12:47:08;7.70;;;5.83;;
76176;SDS011;64938;47.696;8.066;2023-01-23T12:49:52;6.50;;;4.70;;
76176;SDS011;64938;47.696;8.066;2023-01-23T12:55:00;7.50;;;4.57;;
76176;SDS011;64938;47.696;8.066;2023-01-23T12:57:29;8.80;;;5.70;;
76176;SDS011;64938;47.696;8.066;2023-01-23T13:11:27;7.50;;;5.60;;
76176;SDS011;64938;47.696;8.066;2023-01-23T13:14:15;8.13;;;5.60;;
76176;SDS011;64938;47.696;8.066;2023-01-23T13:16:45;7.53;;;5.63;;
76176;SDS011;64938;47.696;8.066;2023-01-23T13:19:25;7.27;;;5.57;;
76176;SDS011;64938;47.696;8.066;2023-01-23T13:22:26;7.40;;;5.53;;
76176;SDS011;64938;47.696;8.066;2023-01-23T13:25:10;6.60;;;5.50;;
76176;SDS011;64938;47.696;8.066;2023-01-23T13:27:48;7.07;;;4.33;;
76176;SDS011;64938;47.696;8.066;2023-01-23T13:32:48;6.43;;;5.37;;
76176;SDS011;64938;47.696;8.066;2023-01-23T13:46:30;7.13;;;5.67;;
76176;SDS011;64938;47.696;8.066;2023-01-23T13:51:49;7.93;;;5.63;;
76176;SDS011;64938;47.696;8.066;2023-01-23T13:54:23;6.50;;;5.10;;
76176;SDS011;64938;47.696;8.066;2023-01-23T13:57:12;7.90;;;5.57;;
76176;SDS011;64938;47.696;8.066;2023-01-23T13:59:39;8.80;;;6.17;;
76176;SDS011;64938;47.696;8.066;2023-01-23T14:05:12;9.13;;;6.47;;
76176;SDS011;64938;47.696;8.066;2023-01-23T14:07:40;9.67;;;6.57;;
76176;SDS011;64938;47.696;8.066;2023-01-23T14:10:15;7.57;;;6.00;;
76176;SDS011;64938;47.696;8.066;2023-01-23T14:12:43;10.10;;;7.07;;
76176;SDS011;64938;47.696;8.066;2023-01-23T14:15:16;7.43;;;5.80;;
76176;SDS011;64938;47.696;8.066;2023-01-23T14:18:17;9.10;;;6.30;;
76176;SDS011;64938;47.696;8.066;2023-01-23T14:20:47;10.23;;;6.80;;
76176;SDS011;64938;47.696;8.066;2023-01-23T14:23:25;11.67;;;7.00;;
76176;SDS011;64938;47.696;8.066;2023-01-23T14:25:53;10.67;;;7.33;;
76176;SDS011;64938;47.696;8.066;2023-01-23T14:28:18;10.80;;;6.77;;
76176;SDS011;64938;47.696;8.066;2023-01-23T14:30:52;10.90;;;6.83;;
76176;SDS011;64938;47.696;8.066;2023-01-23T14:33:22;7.63;;;6.80;;
76176;SDS011;64938;47.696;8.066;2023-01-23T14:35:48;7.93;;;6.10;;
76176;SDS011;64938;47.696;8.066;2023-01-23T14:38:21;9.37;;;6.67;;
76176;SDS011;64938;47.696;8.066;2023-01-23T14:40:52;11.23;;;7.67;;
76176;SDS011;64938;47.696;8.066;2023-01-23T14:43:22;10.23;;;7.40;;
76176;SDS011;64938;47.696;8.066;2023-01-23T14:48:28;9.00;;;7.30;;
76176;SDS011;64938;47.696;8.066;2023-01-23T14:51:09;9.80;;;6.70;;
76176;SDS011;64938;47.696;8.066;2023-01-23T14:53:40;10.93;;;7.00;;
76176;SDS011;64938;47.696;8.066;2023-01-23T14:56:07;10.60;;;7.00;;
76176;SDS011;64938;47.696;8.066;2023-01-23T14:58:34;10.70;;;7.50;;
76176;SDS011;64938;47.696;8.066;2023-01-23T15:01:00;10.43;;;7.80;;
76176;SDS011;64938;47.696;8.066;2023-01-23T15:06:02;10.00;;;7.30;;
76176;SDS011;64938;47.696;8.066;2023-01-23T15:08:32;10.83;;;7.03;;
76176;SDS011;64938;47.696;8.066;2023-01-23T15:10:59;12.33;;;7.63;;
76176;SDS011;64938;47.696;8.066;2023-01-23T15:13:34;8.57;;;6.63;;
76176;SDS011;64938;47.696;8.066;2023-01-23T15:16:04;8.47;;;6.20;;
76176;SDS011;64938;47.696;8.066;2023-01-23T15:18:32;10.30;;;7.30;;
76176;SDS011;64938;47.696;8.066;2023-01-23T15:21:03;8.67;;;6.70;;
76176;SDS011;64938;47.696;8.066;2023-01-23T15:23:31;9.80;;;7.00;;
76176;SDS011;64938;47.696;8.066;2023-01-23T15:31:28;9.87;;;7.50;;
76176;SDS011;64938;47.696;8.066;2023-01-23T15:33:56;8.50;;;6.50;;
76176;SDS011;64938;47.696;8.066;2023-01-23T15:36:54;9.43;;;5.73;;
76176;SDS011;64938;47.696;8.066;2023-01-23T15:39:25;8.53;;;5.70;;
76176;SDS011;64938;47.696;8.066;2023-01-23T15:41:55;8.30;;;6.17;;
76176;SDS011;64938;47.696;8.066;2023-01-23T15:44:23;8.83;;;6.60;;
76176;SDS011;64938;47.696;8.066;2023-01-23T15:46:51;9.67;;;7.17;;
76176;SDS011;64938;47.696;8.066;2023-01-23T15:49:17;9.73;;;6.30;;
76176;SDS011;64938;47.696;8.066;2023-01-23T15:51:43;8.63;;;6.23;;
76176;SDS011;64938;47.696;8.066;2023-01-23T15:54:15;7.63;;;5.90;;
76176;SDS011;64938;47.696;8.066;2023-01-23T15:56:46;6.93;;;5.83;;
76176;SDS011;64938;47.696;8.066;2023-01-23T15:59:16;7.37;;;5.93;;
76176;SDS011;64938;47.696;8.066;2023-01-23T16:01:42;7.83;;;5.57;;
76176;SDS011;64938;47.696;8.066;2023-01-23T16:04:08;6.50;;;5.40;;
76176;SDS011;64938;47.696;8.066;2023-01-23T16:06:34;7.23;;;5.10;;
76176;SDS011;64938;47.696;8.066;2023-01-23T16:09:01;6.67;;;5.20;;
76176;SDS011;64938;47.696;8.066;2023-01-23T16:11:29;9.10;;;5.90;;
76176;SDS011;64938;47.696;8.066;2023-01-23T16:13:57;11.77;;;6.10;;
76176;SDS011;64938;47.696;8.066;2023-01-23T16:16:22;8.40;;;5.03;;
76176;SDS011;64938;47.696;8.066;2023-01-23T16:18:48;7.70;;;6.27;;
76176;SDS011;64938;47.696;8.066;2023-01-23T16:21:15;9.10;;;6.23;;
76176;SDS011;64938;47.696;8.066;2023-01-23T16:23:41;8.57;;;6.50;;
76176;SDS011;64938;47.696;8.066;2023-01-23T16:26:14;10.13;;;6.10;;
76176;SDS011;64938;47.696;8.066;2023-01-23T16:28:42;8.40;;;7.10;;
76176;SDS011;64938;47.696;8.066;2023-01-23T16:31:10;9.77;;;6.30;;
76176;SDS011;64938;47.696;8.066;2023-01-23T16:33:37;8.60;;;6.00;;
76176;SDS011;64938;47.696;8.066;2023-01-23T16:36:03;9.07;;;5.93;;
76176;SDS011;64938;47.696;8.066;2023-01-23T16:38:29;7.90;;;5.83;;
76176;SDS011;64938;47.696;8.066;2023-01-23T16:40:56;9.20;;;5.73;;
76176;SDS011;64938;47.696;8.066;2023-01-23T16:43:27;7.47;;;5.87;;
76176;SDS011;64938;47.696;8.066;2023-01-23T16:45:53;7.67;;;6.10;;
76176;SDS011;64938;47.696;8.066;2023-01-23T16:48:20;9.73;;;6.23;;
76176;SDS011;64938;47.696;8.066;2023-01-23T16:50:47;7.77;;;5.97;;
76176;SDS011;64938;47.696;8.066;2023-01-23T16:53:24;8.70;;;6.00;;
76176;SDS011;64938;47.696;8.066;2023-01-23T16:55:52;9.00;;;6.30;;
76176;SDS011;64938;47.696;8.066;2023-01-23T16:58:19;9.17;;;6.57;;
76176;SDS011;64938;47.696;8.066;2023-01-23T17:00:47;10.63;;;7.10;;
76176;SDS011;64938;47.696;8.066;2023-01-23T17:03:21;7.77;;;6.10;;
76176;SDS011;64938;47.696;8.066;2023-01-23T17:05:47;8.27;;;6.73;;